createdAt,value
2018-08-10T12:19:46.590Z,1.70
2018-08-10T12:22:16.756Z,2.00
2018-08-10T12:24:46.172Z,1.83
2018-08-10T12:27:16.277Z,1.60
2018-08-10T12:29:45.997Z,1.90
2018-08-10T12:32:27.543Z,1.70
2018-08-10T12:35:01.408Z,1.77
2018-08-10T12:37:31.145Z,1.90
2018-08-10T12:40:02.137Z,1.40
2018-08-10T12:42:32.556Z,1.80
2018-08-10T12:45:07.666Z,1.60
2018-08-10T12:47:38.128Z,1.80
2018-08-10T12:50:10.366Z,2.50
2018-08-10T12:52:44.731Z,2.53
2018-08-10T12:55:18.009Z,2.03
2018-08-10T12:57:49.674Z,1.50
2018-08-10T13:00:19.297Z,1.87
2018-08-10T13:02:54.823Z,1.70
2018-08-10T13:05:28.320Z,1.50
2018-08-10T13:08:02.670Z,1.60
2018-08-10T13:10:32.249Z,1.50
2018-08-10T13:13:06.657Z,1.70
2018-08-10T13:15:36.063Z,1.50
2018-08-10T13:18:06.831Z,1.50
2018-08-10T13:20:36.193Z,1.40
2018-08-10T13:23:06.772Z,1.70
2018-08-10T13:25:36.271Z,1.77
2018-08-10T13:28:06.101Z,1.73
2018-08-10T13:30:35.548Z,2.00
2018-08-10T13:33:05.426Z,1.53
2018-08-10T13:35:34.929Z,1.57
2018-08-10T13:38:04.466Z,1.70
2018-08-10T13:40:33.997Z,1.73
2018-08-10T13:43:05.754Z,2.00
2018-08-10T13:45:35.862Z,2.47
2018-08-10T13:48:06.463Z,2.67
2018-08-10T13:50:36.078Z,2.40
2018-08-10T13:53:09.539Z,2.10
2018-08-10T13:55:41.216Z,2.30
2018-08-10T13:58:26.205Z,2.10
